KHUF/HUF METAR and TAF weather

Enter ICAO airport designator
Station Type Date Time Source
KHUF METAR 2022/01/18 07:53 UTC NOAA

KHUF 180753Z AUTO 00000KT 10SM CLR M04/M07 A3005 RMK AO2 SLP182 T10441072


Station Type Date Time Source
KHUF Decoded METAR 2022/01/18 07:53 UTC NOAA

TERRE HAUTE INTERNATIONAL -HULMAN FLD, IN, United States (KHUF) 39-27N 087-19W 179M
Jan 18, 2022 - 02:53 AM EST / 2022.01.18 0753 UTC
Wind: Calm:0
Visibility: 10 mile(s):0
Sky conditions: clear
Temperature: 24.1 F (-4.4 C)
Dew Point: 19.0 F (-7.2 C)
Relative Humidity: 80%
Pressure (altimeter): 30.05 in. Hg (1017 hPa)
ob: KHUF 180753Z AUTO 00000KT 10SM CLR M04/M07 A3005 RMK AO2 SLP182 T10441072
cycle: 8

Station Type Date Time Source
KHUF TAF 2022/01/18 06:22 UTC NOAA

TAF KHUF 180520Z 1806/1906 24004KT P6SM BKN022
FM180800 23004KT P6SM BKN100
FM181600 17010G18KT P6SM SCT250
FM182200 19016G25KT P6SM BKN250
FM190000 19014G24KT P6SM BKN250 WS020/22045KT

Example: see airport list